Time;durP1;ratioP1;P1;durP2;ratioP2;P2;SDS_P1;SDS_P2;PMS_P1;PMS_P2;Temp;Humidity;BMP_temperature;BMP_pressure;BME280_temperature;BME280_humidity;BME280_pressure;Samples;Min_cycle;Max_cycle;Signal;HPM_P1;HPM_P2
2023/07/06 00:02:22;;;;;;;6.75;3.53;;;18.20;84.30;;;;;;5048056;28;20090;-50
2023/07/06 00:05:09;;;;;;;4.95;3.40;;;18.20;84.40;;;;;;5024107;28;20057;-53
2023/07/06 00:07:56;;;;;;;5.40;3.72;;;18.10;84.70;;;;;;5033037;28;20025;-55
2023/07/06 00:10:43;;;;;;;6.28;3.50;;;18.10;84.90;;;;;;5051923;28;20032;-52
2023/07/06 00:13:29;;;;;;;6.45;4.05;;;18.10;85.20;;;;;;5050820;28;20539;-52
2023/07/06 00:16:16;;;;;;;7.53;3.80;;;18.10;85.50;;;;;;5045061;28;20406;-54
2023/07/06 00:19:03;;;;;;;6.18;3.50;;;17.70;86.50;;;;;;5033134;28;20041;-55
2023/07/06 00:21:50;;;;;;;5.18;3.60;;;17.70;87.00;;;;;;5050451;28;20025;-56
2023/07/06 00:24:36;;;;;;;12.20;4.00;;;17.70;86.90;;;;;;5051317;28;20067;-55
2023/07/06 00:27:22;;;;;;;6.63;3.38;;;17.70;87.60;;;;;;5048408;28;20306;-55
2023/07/06 00:30:15;;;;;;;6.30;3.47;;;17.70;87.60;;;;;;5022183;28;20026;-54
2023/07/06 00:33:02;;;;;;;6.13;3.55;;;17.80;87.30;;;;;;5043708;28;20064;-53
2023/07/06 00:35:49;;;;;;;5.97;3.80;;;18.00;86.70;;;;;;5051183;28;20029;-53
2023/07/06 00:38:36;;;;;;;6.80;3.72;;;17.90;87.00;;;;;;5049398;28;20033;-54
2023/07/06 00:41:22;;;;;;;4.30;3.65;;;17.90;86.80;;;;;;5048180;28;20104;-54
2023/07/06 00:44:47;;;;;;;4.30;3.50;;;17.80;86.90;;;;;;5031762;28;20107;-56
2023/07/06 00:47:38;;;;;;;7.43;3.88;;;17.80;87.30;;;;;;5032518;28;20386;-53
2023/07/06 00:50:28;;;;;;;4.93;3.63;;;17.70;87.50;;;;;;5031821;28;20060;-54
2023/07/06 00:53:16;;;;;;;3.97;3.17;;;17.60;87.90;;;;;;5030027;28;20065;-53
2023/07/06 00:56:04;;;;;;;5.47;3.50;;;17.60;87.90;;;;;;5036151;28;20083;-54
2023/07/06 00:58:53;;;;;;;5.45;3.53;;;17.50;88.30;;;;;;5053259;28;20032;-55
2023/07/06 01:01:43;;;;;;;10.00;4.10;;;17.30;89.50;;;;;;5053581;28;20116;-54
2023/07/06 01:04:32;;;;;;;4.00;3.13;;;17.40;89.00;;;;;;5052601;28;20075;-54
2023/07/06 01:07:23;;;;;;;6.47;3.58;;;17.30;89.20;;;;;;5052376;28;20029;-54
2023/07/06 01:10:10;;;;;;;4.70;3.55;;;17.30;89.90;;;;;;5021684;28;20117;-51
2023/07/06 01:12:55;;;;;;;5.20;3.50;;;17.30;90.10;;;;;;5062058;28;20064;-53
2023/07/06 01:16:02;;;;;;;5.70;3.60;;;17.30;90.00;;;;;;5035669;28;20029;-52
2023/07/06 01:19:17;;;;;;;8.15;3.80;;;17.40;90.00;;;;;;5036424;28;20033;-52
2023/07/06 01:22:40;;;;;;;6.25;3.50;;;17.50;89.70;;;;;;5052219;28;20029;-55
2023/07/06 01:25:41;;;;;;;6.13;3.53;;;17.40;89.60;;;;;;5038469;28;20030;-52
2023/07/06 01:28:47;;;;;;;4.90;3.20;;;17.40;89.80;;;;;;5034930;28;20533;-54
2023/07/06 01:31:37;;;;;;;5.47;3.83;;;17.40;90.00;;;;;;5037888;28;20034;-55
2023/07/06 01:34:41;;;;;;;6.10;3.42;;;17.30;90.30;;;;;;5029536;28;20108;-53
2023/07/06 01:37:34;;;;;;;5.75;3.20;;;17.10;90.50;;;;;;5014533;28;20028;-51
2023/07/06 01:40:20;;;;;;;5.07;3.53;;;17.10;90.80;;;;;;5026454;28;20029;-54
2023/07/06 01:43:06;;;;;;;8.85;3.40;;;17.10;90.80;;;;;;5036237;28;20018;-53
2023/07/06 01:45:53;;;;;;;6.40;3.75;;;17.10;91.00;;;;;;5043522;28;20021;-52
2023/07/06 01:48:39;;;;;;;4.43;3.30;;;17.10;90.90;;;;;;5054429;28;20507;-54
2023/07/06 01:51:45;;;;;;;6.13;3.85;;;17.20;90.80;;;;;;5025996;28;20069;-51
2023/07/06 01:54:39;;;;;;;5.70;3.60;;;17.20;90.70;;;;;;5046812;28;20621;-55
2023/07/06 01:57:31;;;;;;;6.55;4.10;;;17.20;90.70;;;;;;5037578;28;20387;-54
2023/07/06 02:00:19;;;;;;;4.68;3.53;;;17.20;90.70;;;;;;5055362;28;20056;-51
2023/07/06 02:03:06;;;;;;;8.45;3.75;;;17.20;90.60;;;;;;5032593;28;20034;-54
2023/07/06 02:05:52;;;;;;;6.10;4.47;;;17.20;90.60;;;;;;5034379;28;20087;-55
2023/07/06 02:08:41;;;;;;;6.75;5.10;;;17.20;90.80;;;;;;5054154;28;20028;-54
2023/07/06 02:11:27;;;;;;;5.43;3.80;;;17.10;90.80;;;;;;5058993;28;20046;-57
2023/07/06 02:14:13;;;;;;;7.07;4.22;;;17.10;90.70;;;;;;5054263;28;20036;-55
2023/07/06 02:16:59;;;;;;;7.22;3.90;;;17.20;90.70;;;;;;5036720;28;20033;-54
2023/07/06 02:19:45;;;;;;;4.88;3.10;;;17.20;90.70;;;;;;5034885;28;20024;-55
2023/07/06 02:22:32;;;;;;;5.18;3.53;;;17.20;91.00;;;;;;5035155;28;20037;-55
2023/07/06 02:25:18;;;;;;;4.35;3.50;;;17.20;90.90;;;;;;5034378;28;20091;-53
2023/07/06 02:28:04;;;;;;;4.85;3.63;;;17.20;91.00;;;;;;5033571;28;20160;-55
2023/07/06 02:30:52;;;;;;;6.32;3.80;;;17.00;91.20;;;;;;5034282;28;20144;-52
2023/07/06 02:33:38;;;;;;;4.70;3.40;;;17.00;91.60;;;;;;5014215;28;20077;-55
2023/07/06 02:36:24;;;;;;;5.90;3.65;;;16.90;91.60;;;;;;5012796;28;20033;-53
2023/07/06 02:39:10;;;;;;;5.53;3.60;;;16.90;91.50;;;;;;5013583;28;20487;-54
2023/07/06 02:41:57;;;;;;;6.40;4.00;;;16.90;91.70;;;;;;5013524;28;20046;-53
2023/07/06 02:44:43;;;;;;;4.65;3.30;;;16.70;91.90;;;;;;5014187;28;20026;-54
2023/07/06 02:47:29;;;;;;;4.35;3.38;;;16.70;92.10;;;;;;5013142;28;20034;-51
2023/07/06 02:50:15;;;;;;;5.78;3.70;;;16.70;92.00;;;;;;5014330;28;20034;-56
2023/07/06 02:53:01;;;;;;;10.40;4.30;;;16.80;92.10;;;;;;5014237;28;20088;-54
2023/07/06 02:55:47;;;;;;;6.28;3.80;;;16.80;92.10;;;;;;5013831;28;20037;-51
2023/07/06 02:58:34;;;;;;;5.70;3.50;;;16.80;92.30;;;;;;5014311;28;20033;-51
2023/07/06 03:01:20;;;;;;;6.57;3.72;;;16.80;92.40;;;;;;5014768;28;20129;-51
2023/07/06 03:04:09;;;;;;;4.75;3.85;;;16.80;92.30;;;;;;5014259;28;20494;-55
2023/07/06 03:06:56;;;;;;;5.18;3.70;;;16.80;92.30;;;;;;5013314;28;20036;-54
2023/07/06 03:09:42;;;;;;;7.05;3.60;;;16.90;92.30;;;;;;5014079;28;20525;-54
2023/07/06 03:12:37;;;;;;;5.80;4.32;;;16.90;92.30;;;;;;5028892;28;20097;-56
2023/07/06 03:15:23;;;;;;;5.40;3.63;;;16.90;92.30;;;;;;5014463;28;20480;-55
2023/07/06 03:18:09;;;;;;;5.88;4.10;;;16.90;92.40;;;;;;5011794;28;20088;-53
2023/07/06 03:20:55;;;;;;;10.00;6.82;;;16.90;92.60;;;;;;5012860;28;20033;-56
2023/07/06 03:23:41;;;;;;;38.03;26.10;;;16.90;92.60;;;;;;5013296;28;20529;-56
2023/07/06 03:26:28;;;;;;;42.47;26.33;;;17.00;92.50;;;;;;5017488;28;20038;-53
2023/07/06 03:29:14;;;;;;;11.80;6.50;;;16.90;92.80;;;;;;5014006;28;20121;-56
2023/07/06 03:32:00;;;;;;;6.03;4.25;;;16.90;93.40;;;;;;5012602;28;20022;-53
2023/07/06 03:34:46;;;;;;;6.78;4.05;;;16.90;93.80;;;;;;5012540;28;20037;-57
2023/07/06 03:37:33;;;;;;;5.63;3.83;;;16.90;93.70;;;;;;5012055;28;20030;-53
2023/07/06 03:40:20;;;;;;;6.00;3.70;;;17.00;93.50;;;;;;5013207;28;20498;-50
2023/07/06 03:43:06;;;;;;;12.45;7.97;;;17.00;93.20;;;;;;5025504;28;20039;-52
2023/07/06 03:45:52;;;;;;;11.70;8.18;;;17.10;93.40;;;;;;5014140;28;20502;-51
2023/07/06 03:48:40;;;;;;;7.05;5.10;;;17.10;93.00;;;;;;5031742;28;20038;-55
2023/07/06 03:51:26;;;;;;;6.32;3.85;;;17.20;92.70;;;;;;5016873;28;20415;-57
2023/07/06 03:54:13;;;;;;;4.85;3.85;;;17.20;92.60;;;;;;5015814;28;20037;-55
2023/07/06 03:56:59;;;;;;;5.30;3.75;;;17.30;92.50;;;;;;5025780;28;20085;-54
2023/07/06 03:59:45;;;;;;;5.82;3.70;;;17.30;92.70;;;;;;5022768;28;20435;-54
2023/07/06 04:02:31;;;;;;;5.35;3.70;;;17.30;93.00;;;;;;5018005;28;20053;-55
2023/07/06 04:05:23;;;;;;;5.03;3.65;;;17.30;92.90;;;;;;5027677;28;20552;-54
2023/07/06 04:08:14;;;;;;;7.05;3.90;;;17.40;92.80;;;;;;5012726;28;20410;-49
2023/07/06 04:11:00;;;;;;;4.40;3.30;;;17.40;92.50;;;;;;5025666;28;20057;-53
2023/07/06 04:13:46;;;;;;;7.07;4.18;;;17.40;92.40;;;;;;5013359;28;20113;-53
2023/07/06 04:16:32;;;;;;;6.40;4.00;;;17.40;92.20;;;;;;5013492;28;20050;-53
2023/07/06 04:19:18;;;;;;;5.03;3.60;;;17.50;92.20;;;;;;5025898;28;20487;-54
2023/07/06 04:22:04;;;;;;;5.95;3.72;;;17.50;92.20;;;;;;5013707;28;20037;-51
2023/07/06 04:24:51;;;;;;;5.18;3.78;;;17.50;92.00;;;;;;5020131;28;20026;-57
2023/07/06 04:27:37;;;;;;;4.45;3.50;;;17.50;91.90;;;;;;5029062;28;20049;-56
2023/07/06 04:30:23;;;;;;;5.45;3.50;;;17.50;91.90;;;;;;5015053;28;20088;-54
2023/07/06 04:33:15;;;;;;;5.55;3.72;;;17.50;92.00;;;;;;5016240;28;20029;-54
2023/07/06 04:36:02;;;;;;;6.38;3.80;;;17.50;92.00;;;;;;5017457;28;20075;-54
2023/07/06 04:38:49;;;;;;;5.32;3.45;;;17.50;91.70;;;;;;5016710;28;20037;-51
2023/07/06 04:41:37;;;;;;;6.03;3.47;;;17.40;92.10;;;;;;5015662;28;20032;-54
2023/07/06 04:44:23;;;;;;;7.20;3.60;;;17.40;92.50;;;;;;5015878;28;20041;-54
2023/07/06 04:47:08;;;;;;;5.35;4.20;;;17.40;93.20;;;;;;5015895;28;20053;-55
2023/07/06 04:49:54;;;;;;;6.65;3.45;;;17.40;93.10;;;;;;5016933;28;20026;-54
2023/07/06 04:52:40;;;;;;;5.95;3.88;;;17.50;92.80;;;;;;5016982;28;20406;-54
2023/07/06 04:55:29;;;;;;;6.47;4.00;;;17.40;92.60;;;;;;5015569;28;20045;-53
2023/07/06 04:58:15;;;;;;;5.88;4.38;;;17.50;92.60;;;;;;5015629;28;20066;-52
2023/07/06 05:01:06;;;;;;;4.90;3.47;;;17.60;92.20;;;;;;5015425;28;20033;-54
2023/07/06 05:03:52;;;;;;;5.68;3.55;;;17.60;92.20;;;;;;5014849;28;20026;-56
2023/07/06 05:06:38;;;;;;;4.97;4.00;;;17.60;92.60;;;;;;5015427;28;20402;-54
2023/07/06 05:09:24;;;;;;;6.00;3.97;;;17.50;92.50;;;;;;5015324;28;20049;-55
2023/07/06 05:12:10;;;;;;;5.78;4.07;;;17.60;92.70;;;;;;5015675;28;20120;-55
2023/07/06 05:14:56;;;;;;;8.27;5.35;;;17.60;92.80;;;;;;5015406;28;20045;-56
2023/07/06 05:17:42;;;;;;;8.80;4.40;;;17.60;93.00;;;;;;5029460;28;20029;-56
2023/07/06 05:20:30;;;;;;;6.50;3.38;;;17.60;92.70;;;;;;5029363;28;20132;-53
2023/07/06 05:23:22;;;;;;;4.80;3.67;;;17.60;92.30;;;;;;5028908;28;20052;-53
2023/07/06 05:26:08;;;;;;;6.80;3.88;;;17.60;92.50;;;;;;5018283;28;20041;-55
2023/07/06 05:28:54;;;;;;;6.43;3.80;;;17.60;92.80;;;;;;5018539;28;20049;-54
2023/07/06 05:31:42;;;;;;;7.18;3.90;;;17.60;92.40;;;;;;5027992;28;20076;-53
2023/07/06 05:34:28;;;;;;;7.00;3.80;;;17.60;92.70;;;;;;5034746;28;20108;-54
2023/07/06 05:37:14;;;;;;;9.75;4.00;;;17.60;92.90;;;;;;5033200;28;20467;-52
2023/07/06 05:40:03;;;;;;;5.90;3.30;;;17.70;92.90;;;;;;5034015;28;20033;-54
2023/07/06 05:42:49;;;;;;;6.78;3.90;;;17.60;93.00;;;;;;5034219;28;20072;-53
2023/07/06 05:45:36;;;;;;;6.25;3.85;;;17.60;93.00;;;;;;5034038;28;20033;-54
2023/07/06 05:48:22;;;;;;;5.50;3.95;;;17.60;92.90;;;;;;5033304;28;20087;-54
2023/07/06 05:51:08;;;;;;;7.78;3.65;;;17.70;92.80;;;;;;5033476;28;20053;-53
2023/07/06 05:53:54;;;;;;;5.55;4.20;;;17.70;92.80;;;;;;5035208;28;20497;-54
2023/07/06 05:56:41;;;;;;;9.55;4.05;;;17.70;93.00;;;;;;5034819;28;20029;-55
2023/07/06 05:59:27;;;;;;;8.13;3.90;;;17.80;92.70;;;;;;5035067;28;20034;-50
2023/07/06 06:02:17;;;;;;;7.53;4.00;;;17.90;92.90;;;;;;5037294;28;20033;-53
2023/07/06 06:05:04;;;;;;;5.75;4.20;;;17.90;92.70;;;;;;5038263;28;20081;-53
2023/07/06 06:07:50;;;;;;;5.38;3.85;;;17.90;92.70;;;;;;5034145;28;20030;-51
2023/07/06 06:10:36;;;;;;;6.68;3.92;;;18.00;92.70;;;;;;5034306;28;20253;-56
2023/07/06 06:13:22;;;;;;;7.25;3.72;;;18.00;92.70;;;;;;5035762;28;20047;-52
2023/07/06 06:16:08;;;;;;;6.70;3.80;;;18.20;92.70;;;;;;5035135;28;20082;-54
2023/07/06 06:18:56;;;;;;;5.07;3.70;;;18.30;92.40;;;;;;5035507;28;20037;-54
2023/07/06 06:21:43;;;;;;;6.68;3.60;;;18.30;92.20;;;;;;5035081;28;20091;-53
2023/07/06 06:24:29;;;;;;;5.32;3.60;;;18.20;92.10;;;;;;5035002;28;20029;-54
2023/07/06 06:27:16;;;;;;;8.68;3.60;;;18.30;92.10;;;;;;5033579;28;20487;-55
2023/07/06 06:30:05;;;;;;;5.35;3.45;;;18.40;91.70;;;;;;5034557;28;20061;-56
2023/07/06 06:32:51;;;;;;;5.75;3.70;;;18.50;91.80;;;;;;5014400;28;20077;-54
2023/07/06 06:35:37;;;;;;;4.63;3.35;;;18.50;91.50;;;;;;5013734;28;20025;-54
2023/07/06 06:38:23;;;;;;;5.95;3.75;;;18.60;91.10;;;;;;5014501;28;20034;-53
2023/07/06 06:41:10;;;;;;;6.15;3.42;;;18.70;90.90;;;;;;5026208;28;20080;-55
2023/07/06 06:43:56;;;;;;;5.47;3.38;;;18.50;91.10;;;;;;5036167;28;20022;-51
2023/07/06 06:46:45;;;;;;;5.20;3.20;;;18.50;91.40;;;;;;5032522;28;20030;-54
2023/07/06 06:49:33;;;;;;;5.65;3.25;;;18.70;91.30;;;;;;5033034;28;20029;-53
2023/07/06 06:52:20;;;;;;;5.30;3.25;;;18.60;90.90;;;;;;5032136;28;20104;-53
2023/07/06 06:55:07;;;;;;;5.00;3.42;;;18.70;91.30;;;;;;5032907;28;20025;-53
2023/07/06 06:57:53;;;;;;;5.05;3.53;;;18.70;90.60;;;;;;5036015;28;20025;-52
2023/07/06 07:00:40;;;;;;;4.75;3.17;;;18.90;90.60;;;;;;5033761;28;20406;-51
2023/07/06 07:03:29;;;;;;;6.20;4.22;;;18.80;90.50;;;;;;5032462;28;20025;-53
2023/07/06 07:06:16;;;;;;;5.90;3.33;;;18.90;90.20;;;;;;5032116;28;20505;-53
2023/07/06 07:09:02;;;;;;;4.75;3.22;;;18.80;90.20;;;;;;5032811;28;20029;-53
2023/07/06 07:11:48;;;;;;;6.00;3.08;;;18.80;90.00;;;;;;5031885;28;20389;-53
2023/07/06 07:14:34;;;;;;;5.15;3.45;;;18.60;90.20;;;;;;5032489;28;20406;-55
2023/07/06 07:17:20;;;;;;;5.03;3.35;;;18.90;90.10;;;;;;5033899;28;20037;-53
2023/07/06 07:20:07;;;;;;;5.80;3.17;;;19.00;89.60;;;;;;5032613;28;20559;-55
2023/07/06 07:22:54;;;;;;;8.40;3.97;;;19.20;89.60;;;;;;5031763;28;20478;-50
2023/07/06 07:25:41;;;;;;;6.82;3.20;;;19.20;89.80;;;;;;5033631;28;20100;-50
2023/07/06 07:28:28;;;;;;;7.38;3.53;;;19.40;89.50;;;;;;5036995;28;20089;-53
2023/07/06 07:31:17;;;;;;;8.30;3.85;;;19.30;90.10;;;;;;5031554;28;20045;-57
2023/07/06 07:34:05;;;;;;;6.15;3.67;;;19.40;89.30;;;;;;5032500;28;20037;-51
2023/07/06 07:36:51;;;;;;;4.45;3.28;;;19.50;88.00;;;;;;5031692;28;20037;-54
2023/07/06 07:39:37;;;;;;;4.93;3.55;;;19.30;88.00;;;;;;5032133;28;20030;-54
2023/07/06 07:42:25;;;;;;;4.22;3.38;;;19.50;87.80;;;;;;5033414;28;20025;-54
2023/07/06 07:45:11;;;;;;;3.92;3.05;;;19.60;87.30;;;;;;5031779;28;20037;-55
2023/07/06 07:47:57;;;;;;;5.43;3.40;;;19.70;86.70;;;;;;5032623;28;20037;-54
2023/07/06 07:50:48;;;;;;;5.40;3.20;;;19.70;86.60;;;;;;5031321;28;20076;-53
2023/07/06 07:53:39;;;;;;;4.47;3.40;;;19.60;87.60;;;;;;5030767;28;20078;-55
2023/07/06 07:56:26;;;;;;;4.72;3.13;;;19.60;87.10;;;;;;5030079;28;20029;-54
2023/07/06 07:59:12;;;;;;;8.20;3.63;;;19.80;86.50;;;;;;5032058;28;20055;-54
2023/07/06 08:01:59;;;;;;;4.78;3.53;;;19.70;87.00;;;;;;5029406;28;20402;-52
2023/07/06 08:04:47;;;;;;;11.02;3.67;;;19.70;85.70;;;;;;5031574;28;20041;-56
2023/07/06 08:07:33;;;;;;;7.05;3.63;;;19.70;85.80;;;;;;5030631;28;20545;-56
2023/07/06 08:10:20;;;;;;;4.70;3.10;;;19.70;86.60;;;;;;5029625;28;20025;-52
2023/07/06 08:13:09;;;;;;;4.13;2.80;;;19.90;86.00;;;;;;5030937;28;20041;-53
2023/07/06 08:15:55;;;;;;;7.05;3.40;;;19.80;83.30;;;;;;5030579;28;20017;-56
2023/07/06 08:18:41;;;;;;;5.93;3.28;;;19.80;84.30;;;;;;5039785;28;20091;-56
2023/07/06 08:21:27;;;;;;;5.60;3.33;;;19.90;85.30;;;;;;5034326;28;20022;-53
2023/07/06 08:24:13;;;;;;;6.25;3.50;;;19.80;85.60;;;;;;5032254;28;20218;-52
2023/07/06 08:26:59;;;;;;;4.50;2.97;;;19.90;85.60;;;;;;5029413;28;20108;-52
2023/07/06 08:29:45;;;;;;;5.43;3.15;;;20.20;84.60;;;;;;5029202;28;20033;-54
2023/07/06 08:32:33;;;;;;;8.05;3.60;;;20.00;84.40;;;;;;5031347;28;20494;-52
2023/07/06 08:35:19;;;;;;;4.93;3.20;;;20.00;85.00;;;;;;5029324;28;20068;-54
2023/07/06 08:38:05;;;;;;;4.85;3.28;;;20.20;84.10;;;;;;5029120;28;20494;-52
2023/07/06 08:40:52;;;;;;;4.55;3.10;;;20.20;82.20;;;;;;5030262;28;20406;-53
2023/07/06 08:43:39;;;;;;;3.88;3.25;;;20.10;83.60;;;;;;5028492;28;20022;-55
2023/07/06 08:46:34;;;;;;;5.45;3.10;;;20.30;83.40;;;;;;5029027;28;20021;-55
2023/07/06 08:49:32;;;;;;;5.10;3.20;;;20.50;82.10;;;;;;5029271;28;20072;-52
2023/07/06 08:52:19;;;;;;;4.07;3.25;;;20.80;82.20;;;;;;5033853;28;20080;-53
2023/07/06 08:55:12;;;;;;;5.32;3.13;;;20.80;81.70;;;;;;5043211;28;20037;-56
2023/07/06 08:58:00;;;;;;;6.25;3.08;;;21.00;81.60;;;;;;5057151;28;20029;-56
2023/07/06 09:00:46;;;;;;;6.65;3.78;;;21.10;82.00;;;;;;5052490;28;20427;-52
2023/07/06 09:03:46;;;;;;;6.05;3.15;;;21.10;81.10;;;;;;5050767;28;20033;-56
2023/07/06 09:06:37;;;;;;;5.72;3.20;;;21.10;80.00;;;;;;5051400;28;20029;-51
2023/07/06 09:09:24;;;;;;;8.02;3.20;;;21.10;79.50;;;;;;5051549;28;20029;-55
2023/07/06 09:12:31;;;;;;;3.70;3.03;;;21.40;78.90;;;;;;5046742;28;20061;-56
2023/07/06 09:15:21;;;;;;;4.63;3.00;;;21.50;78.90;;;;;;5029667;28;20064;-54
2023/07/06 09:18:13;;;;;;;4.18;3.10;;;21.40;77.80;;;;;;5034305;28;20493;-54
2023/07/06 09:21:00;;;;;;;3.75;2.97;;;21.10;78.60;;;;;;5034634;28;20083;-52
2023/07/06 09:23:47;;;;;;;4.82;3.03;;;21.60;77.50;;;;;;5034465;28;20052;-52
2023/07/06 09:26:35;;;;;;;4.63;3.17;;;21.80;76.70;;;;;;5035807;28;20080;-53
2023/07/06 09:29:28;;;;;;;7.07;3.00;;;21.60;76.60;;;;;;5036894;28;20124;-53
2023/07/06 09:32:16;;;;;;;4.93;3.20;;;21.40;77.20;;;;;;5036729;28;20037;-54
2023/07/06 09:35:12;;;;;;;5.05;3.25;;;21.30;76.90;;;;;;5034127;28;20034;-54
2023/07/06 09:37:58;;;;;;;6.47;2.95;;;21.50;77.10;;;;;;5031147;28;20091;-52
2023/07/06 09:40:45;;;;;;;6.13;3.40;;;21.40;77.20;;;;;;5033439;28;20092;-55
2023/07/06 09:43:37;;;;;;;4.97;2.72;;;21.20;77.00;;;;;;5021889;28;20042;-54
2023/07/06 09:46:31;;;;;;;3.58;2.95;;;21.20;76.70;;;;;;5033708;28;20029;-53
2023/07/06 09:49:18;;;;;;;4.15;3.10;;;21.30;76.20;;;;;;5033993;28;20474;-55
2023/07/06 09:52:12;;;;;;;7.95;3.20;;;21.50;77.00;;;;;;5033919;28;20078;-52
2023/07/06 09:55:19;;;;;;;5.10;2.90;;;21.90;76.10;;;;;;5034452;28;20057;-51
2023/07/06 09:58:18;;;;;;;3.80;2.95;;;22.00;75.50;;;;;;5037599;28;20053;-55
2023/07/06 10:01:28;;;;;;;4.35;2.88;;;22.20;74.30;;;;;;5042544;28;20026;-55
2023/07/06 10:04:36;;;;;;;4.50;3.15;;;22.00;75.20;;;;;;5033814;28;20037;-54
2023/07/06 10:07:29;;;;;;;4.38;3.20;;;21.60;76.40;;;;;;5032444;28;20034;-54
2023/07/06 10:10:38;;;;;;;5.35;2.72;;;21.40;76.00;;;;;;5033781;28;20052;-55
2023/07/06 10:13:30;;;;;;;5.30;2.92;;;21.50;75.60;;;;;;5034124;28;20492;-54
2023/07/06 10:16:28;;;;;;;3.50;2.80;;;21.60;75.00;;;;;;5033349;28;20064;-51
2023/07/06 10:19:41;;;;;;;4.70;3.20;;;22.00;74.00;;;;;;5033352;28;20037;-53
2023/07/06 10:22:47;;;;;;;4.72;3.38;;;21.80;74.60;;;;;;5033353;28;20036;-52
2023/07/06 10:26:08;;;;;;;5.80;2.95;;;21.80;76.00;;;;;;5032755;28;20029;-54
2023/07/06 10:29:02;;;;;;;8.90;3.63;;;21.80;75.70;;;;;;5002899;28;20125;-52
2023/07/06 10:31:54;;;;;;;8.52;3.17;;;22.00;75.50;;;;;;5041965;28;20033;-57
2023/07/06 10:34:44;;;;;;;6.65;3.00;;;22.10;74.60;;;;;;5035958;28;20025;-54
2023/07/06 10:37:31;;;;;;;4.20;2.80;;;22.20;73.20;;;;;;5033229;28;20040;-53
2023/07/06 10:40:28;;;;;;;4.95;2.92;;;22.50;72.70;;;;;;5034065;28;20495;-53
2023/07/06 10:43:14;;;;;;;8.73;3.40;;;22.60;72.80;;;;;;5033709;28;20037;-55
2023/07/06 10:46:35;;;;;;;6.65;3.10;;;22.60;72.70;;;;;;5033679;28;20107;-56
2023/07/06 10:49:22;;;;;;;3.53;2.70;;;22.60;72.30;;;;;;5033909;28;20033;-52
2023/07/06 10:52:11;;;;;;;5.47;3.33;;;22.60;72.40;;;;;;5032353;28;20036;-55
2023/07/06 10:54:57;;;;;;;4.75;3.00;;;22.50;72.60;;;;;;5032538;28;20045;-55
2023/07/06 10:57:53;;;;;;;4.88;3.08;;;22.20;72.50;;;;;;5032438;28;20042;-53
2023/07/06 11:00:44;;;;;;;4.05;2.90;;;22.10;72.40;;;;;;5032449;28;20456;-55
2023/07/06 11:03:34;;;;;;;3.90;2.90;;;22.10;72.50;;;;;;5032177;28;20021;-54
2023/07/06 11:06:49;;;;;;;4.07;2.92;;;22.30;72.60;;;;;;5032371;28;20022;-54
2023/07/06 11:10:13;;;;;;;5.07;3.25;;;22.60;73.30;;;;;;5047528;28;20026;-55
2023/07/06 11:13:02;;;;;;;3.92;2.90;;;22.50;73.00;;;;;;5019213;28;20037;-53
2023/07/06 11:15:51;;;;;;;5.43;3.10;;;22.30;72.90;;;;;;5032877;28;20088;-55
2023/07/06 11:18:47;;;;;;;5.72;3.20;;;22.20;72.90;;;;;;5032137;28;20043;-52
2023/07/06 11:21:51;;;;;;;10.13;3.90;;;22.00;72.60;;;;;;5031918;28;20030;-55
2023/07/06 11:24:42;;;;;;;4.68;3.03;;;22.00;71.30;;;;;;5032978;28;20025;-53
2023/07/06 11:27:32;;;;;;;4.60;2.90;;;22.20;70.90;;;;;;5040716;28;20041;-57
2023/07/06 11:30:31;;;;;;;4.55;3.00;;;22.60;70.60;;;;;;5034614;28;20072;-56
2023/07/06 11:33:35;;;;;;;4.30;3.10;;;22.50;70.80;;;;;;5032382;28;20029;-51
2023/07/06 11:36:42;;;;;;;4.13;2.90;;;22.60;69.60;;;;;;5034247;28;20112;-54
2023/07/06 11:39:43;;;;;;;4.45;2.80;;;23.00;68.80;;;;;;5031925;28;20083;-55
2023/07/06 11:42:51;;;;;;;4.50;2.70;;;23.20;69.40;;;;;;5032418;28;20055;-55
2023/07/06 11:45:59;;;;;;;4.32;3.30;;;23.40;68.60;;;;;;5031365;28;20026;-54
2023/07/06 11:48:54;;;;;;;4.82;2.90;;;23.40;69.60;;;;;;5030980;28;20175;-55
2023/07/06 11:51:42;;;;;;;4.57;3.05;;;23.40;68.40;;;;;;5032030;28;20112;-55
2023/07/06 11:54:43;;;;;;;8.15;3.05;;;23.30;68.40;;;;;;5031547;28;20033;-56
2023/07/06 11:57:42;;;;;;;8.57;3.50;;;23.10;68.70;;;;;;5031361;28;20033;-54
2023/07/06 12:03:15;;;;;;;3.95;2.67;;;23.20;67.90;;;;;;5033196;28;20064;-56
2023/07/06 12:06:03;;;;;;;3.92;2.88;;;23.40;68.10;;;;;;5032322;28;20025;-52
2023/07/06 12:08:49;;;;;;;4.95;2.83;;;23.50;68.60;;;;;;5031412;28;20037;-52
2023/07/06 12:11:37;;;;;;;4.63;3.03;;;23.90;67.50;;;;;;5031686;28;20042;-58
2023/07/06 12:14:23;;;;;;;3.70;2.53;;;23.90;67.40;;;;;;5032213;28;20043;-57
2023/07/06 12:17:11;;;;;;;5.53;2.70;;;23.90;67.50;;;;;;5031860;28;20699;-55
2023/07/06 12:19:58;;;;;;;4.03;2.85;;;24.00;65.90;;;;;;5032240;28;20038;-55
2023/07/06 12:22:52;;;;;;;4.07;2.72;;;23.80;66.40;;;;;;5031591;28;20038;-55
2023/07/06 12:25:40;;;;;;;3.53;2.88;;;23.90;65.20;;;;;;5032269;28;20467;-51
2023/07/06 12:28:31;;;;;;;5.03;3.53;;;24.10;66.60;;;;;;5031705;28;20494;-53
2023/07/06 12:31:17;;;;;;;5.93;2.60;;;24.10;65.70;;;;;;5031771;28;20040;-53
2023/07/06 12:34:03;;;;;;;5.22;2.55;;;23.90;65.70;;;;;;5031424;28;20037;-56
2023/07/06 12:36:54;;;;;;;5.22;2.83;;;23.70;65.50;;;;;;5030966;28;20034;-53
2023/07/06 12:39:43;;;;;;;4.78;2.97;;;23.50;66.70;;;;;;5029318;28;20100;-54
2023/07/06 12:42:29;;;;;;;5.07;2.92;;;23.80;66.90;;;;;;5031782;28;20034;-55
2023/07/06 12:45:20;;;;;;;4.13;2.97;;;24.00;66.20;;;;;;5042216;28;20034;-56
2023/07/06 12:48:19;;;;;;;5.25;2.63;;;24.20;66.30;;;;;;5040583;28;20540;-52
2023/07/06 12:51:09;;;;;;;4.18;3.00;;;24.30;66.10;;;;;;5033039;28;20032;-53
2023/07/06 12:53:57;;;;;;;4.68;2.83;;;24.60;65.60;;;;;;5035490;28;20044;-56
2023/07/06 12:56:44;;;;;;;5.80;2.72;;;24.50;63.80;;;;;;5034655;28;20029;-55
2023/07/06 12:59:36;;;;;;;4.70;2.80;;;24.50;64.10;;;;;;5034291;28;20151;-56
2023/07/06 13:02:23;;;;;;;5.57;2.90;;;24.90;63.70;;;;;;5034212;28;20026;-55
2023/07/06 13:05:21;;;;;;;3.78;2.75;;;25.20;63.60;;;;;;5034107;28;20049;-53
2023/07/06 13:08:14;;;;;;;6.43;3.10;;;25.10;63.10;;;;;;5036162;28;20482;-55
2023/07/06 13:11:02;;;;;;;7.20;3.28;;;25.00;62.70;;;;;;5034300;28;20036;-54
2023/07/06 13:13:50;;;;;;;5.07;2.80;;;24.40;63.40;;;;;;5034951;28;20116;-53
2023/07/06 13:16:41;;;;;;;5.47;2.78;;;24.40;63.60;;;;;;5035997;28;20068;-55
2023/07/06 13:19:27;;;;;;;4.60;2.80;;;24.40;64.80;;;;;;5034054;28;20034;-51
2023/07/06 13:22:14;;;;;;;4.90;2.88;;;24.40;65.60;;;;;;5037543;28;20022;-54
2023/07/06 13:25:01;;;;;;;5.35;2.63;;;24.80;65.30;;;;;;5042610;28;20041;-51
2023/07/06 13:27:47;;;;;;;5.20;2.75;;;25.20;65.20;;;;;;5044882;28;20068;-55
2023/07/06 13:30:36;;;;;;;6.57;3.20;;;25.10;63.90;;;;;;5035233;28;20116;-51
2023/07/06 13:33:22;;;;;;;4.55;2.92;;;24.80;64.30;;;;;;5034384;28;20112;-51
2023/07/06 13:36:14;;;;;;;4.53;2.92;;;24.60;64.20;;;;;;5033797;28;20517;-56
2023/07/06 13:39:00;;;;;;;5.85;2.88;;;24.30;64.60;;;;;;5034156;28;20033;-54
2023/07/06 13:41:46;;;;;;;5.10;3.10;;;24.50;64.90;;;;;;5036799;28;20041;-55
2023/07/06 13:44:31;;;;;;;3.35;2.80;;;24.90;63.50;;;;;;5036468;28;20119;-55
2023/07/06 13:47:18;;;;;;;4.40;2.80;;;25.40;63.90;;;;;;5035040;28;20034;-52
2023/07/06 13:50:04;;;;;;;4.03;2.95;;;25.80;63.00;;;;;;5034677;28;20029;-52
2023/07/06 13:52:52;;;;;;;3.25;2.70;;;25.70;62.10;;;;;;5035165;28;20075;-53
2023/07/06 13:55:52;;;;;;;4.78;2.85;;;25.00;63.70;;;;;;5035748;28;20084;-52
2023/07/06 13:58:41;;;;;;;3.25;2.53;;;25.10;63.20;;;;;;5037324;28;20453;-54
2023/07/06 14:01:27;;;;;;;4.35;2.83;;;25.50;63.40;;;;;;5040625;28;20033;-55
2023/07/06 14:04:16;;;;;;;4.28;3.03;;;26.20;62.40;;;;;;5037113;28;20382;-54
2023/07/06 14:07:02;;;;;;;4.72;2.58;;;26.20;62.20;;;;;;5035062;28;20116;-57
2023/07/06 14:09:48;;;;;;;6.50;3.17;;;25.80;62.00;;;;;;5034611;28;20032;-56
2023/07/06 14:12:35;;;;;;;4.45;2.92;;;25.30;62.10;;;;;;5035208;28;20029;-55
2023/07/06 14:15:21;;;;;;;8.65;3.20;;;25.00;63.40;;;;;;5034871;28;20116;-52
2023/07/06 14:18:08;;;;;;;5.80;2.80;;;25.20;63.00;;;;;;5034932;28;20393;-54
2023/07/06 14:20:59;;;;;;;3.22;2.65;;;25.70;63.30;;;;;;5034923;28;20494;-54
2023/07/06 14:23:46;;;;;;;4.75;3.28;;;26.40;61.30;;;;;;5034166;28;20048;-56
2023/07/06 14:26:31;;;;;;;5.43;2.70;;;26.40;60.90;;;;;;5035081;28;20080;-52
2023/07/06 14:29:17;;;;;;;6.00;2.80;;;26.10;61.40;;;;;;5034854;28;20578;-54
2023/07/06 14:32:05;;;;;;;4.70;3.00;;;25.90;61.40;;;;;;5034487;28;20494;-55
2023/07/06 14:34:51;;;;;;;5.00;2.90;;;25.80;61.50;;;;;;5035112;28;20057;-54
2023/07/06 14:37:38;;;;;;;4.00;2.83;;;26.00;61.00;;;;;;5036330;28;20038;-51
2023/07/06 14:40:24;;;;;;;5.07;2.88;;;26.20;61.90;;;;;;5035868;28;20025;-55
2023/07/06 14:43:10;;;;;;;3.85;2.80;;;26.00;61.40;;;;;;5035296;28;20022;-55
2023/07/06 14:45:56;;;;;;;4.40;3.00;;;26.00;61.70;;;;;;5034962;28;20029;-56